Canaan, Maine
Current Conditions -  °F | °C
As of 12:55 PM on Friday 31 Oct 2014 (Local Time) from KWVL Reporting Station
Scattered Clouds Scattered Clouds  
Wind Chill: 46°   Ceiling: Unl
Heat Index: 48°   Visibility: 10mi
Dew Point: 27°   Wind: 5mph
Humidity: 43%   Direction: 240°WSW
Pressure: 29.99"   Gusts: NA
Location:  44.76°N, 69.56°W
Report Text: KWVL 311655Z 24004KT 10SM SCT049 09/M03 A2999 RMK AO1
Loading
Personal Weather Stations






























Interactive Weather Map
Tropical Storm Tracking
New forecast layout! Learn more

10-Day Weather Forecast

Advertisements
Track Severe Weather on mobile